Terminal Aerodrome Forecast
Issued by NWS Charleston, WV

Home | Current Version | Previous Version | Text Only | Print | Product List | Glossary On
Versions: 1 2 3 4 5 6 7 8 9 10 11 12 13 14 15 16 17 18 19 20 21 22 23
254
FTUS41 KRLX 050549
TAFCRW
TAF
KCRW 050549Z 0506/0606 24005KT 6SM BR SCT008 OVC015
      TEMPO 0507/0511 4SM -DZ BR BKN008
     FM051700 00000KT P6SM BKN025
     FM052100 00000KT P6SM BKN250=

USA.gov is the U.S. government's official web portal to all federal, state and local government web resources and services.